createdAt,value
2022-11-08T00:01:53.899Z,100821.73
2022-11-08T00:04:28.126Z,100820.22
2022-11-08T00:07:18.530Z,100818.14
2022-11-08T00:10:09.372Z,100807.16
2022-11-08T00:13:00.712Z,100812.69
2022-11-08T00:15:38.455Z,100812.32
2022-11-08T00:18:12.492Z,100813.62
2022-11-08T00:20:45.263Z,100813.98
2022-11-08T00:23:18.244Z,100815.80
2022-11-08T00:25:58.248Z,100813.62
2022-11-08T00:28:31.165Z,100812.54
2022-11-08T00:31:08.206Z,100815.27
2022-11-08T00:33:41.094Z,100812.69
2022-11-08T00:36:13.931Z,100816.42
2022-11-08T00:38:47.101Z,100815.52
2022-11-08T00:41:20.558Z,100807.38
2022-11-08T00:43:53.713Z,100812.69
2022-11-08T00:46:26.467Z,100810.35
2022-11-08T00:48:59.197Z,100811.39
2022-11-08T00:51:33.137Z,100809.88
2022-11-08T00:54:07.610Z,100814.55
2022-11-08T00:56:42.238Z,100820.39
2022-11-08T00:59:18.936Z,100814.69
2022-11-08T01:01:52.452Z,100814.19
2022-11-08T01:04:25.494Z,100811.31
2022-11-08T01:06:58.702Z,100806.37
2022-11-08T01:09:31.573Z,100804.79
2022-11-08T01:12:04.767Z,100802.88
2022-11-08T01:14:38.626Z,100807.80
2022-11-08T01:17:11.773Z,100805.36
2022-11-08T01:19:44.850Z,100808.09
2022-11-08T01:22:18.059Z,100806.15
2022-11-08T01:24:50.823Z,100805.08
2022-11-08T01:27:23.808Z,100809.59
2022-11-08T01:29:56.947Z,100802.59
2022-11-08T01:32:31.800Z,100802.99
2022-11-08T01:35:04.732Z,100798.97
2022-11-08T01:37:38.777Z,100797.54
2022-11-08T01:40:13.604Z,100797.54
2022-11-08T01:42:47.200Z,100798.44
2022-11-08T01:45:58.101Z,100796.00
2022-11-08T01:48:31.963Z,100792.27
2022-11-08T01:51:05.739Z,100788.53
2022-11-08T01:53:39.550Z,100788.14
2022-11-08T01:56:13.169Z,100791.51
2022-11-08T01:58:47.618Z,100787.71
2022-11-08T02:01:19.975Z,100790.69
2022-11-08T02:03:53.154Z,100787.71
2022-11-08T02:06:27.197Z,100791.59
2022-11-08T02:09:03.057Z,100786.70
2022-11-08T02:11:36.507Z,100787.38
2022-11-08T02:14:09.884Z,100784.05
2022-11-08T02:16:42.686Z,100785.34
2022-11-08T02:19:20.444Z,100787.92
2022-11-08T02:21:57.573Z,100787.38
2022-11-08T02:24:30.870Z,100777.58
2022-11-08T02:27:04.745Z,100777.72
2022-11-08T02:29:38.512Z,100778.37
2022-11-08T02:32:12.931Z,100784.08
2022-11-08T02:34:54.323Z,100785.36
2022-11-08T02:37:28.422Z,100785.08
2022-11-08T02:40:01.408Z,100789.35
2022-11-08T02:42:34.716Z,100786.37
2022-11-08T02:45:09.750Z,100783.94
2022-11-08T02:47:43.249Z,100793.27
2022-11-08T02:50:16.427Z,100790.42
2022-11-08T02:52:49.446Z,100794.69
2022-11-08T02:55:24.244Z,100789.92
2022-11-08T02:57:57.850Z,100790.67
2022-11-08T03:00:31.237Z,100792.87
2022-11-08T03:03:04.849Z,100793.91
2022-11-08T03:05:37.834Z,100796.41
2022-11-08T03:08:10.703Z,100790.84
2022-11-08T03:10:44.168Z,100796.70
2022-11-08T03:13:17.337Z,100791.27
2022-11-08T03:15:50.198Z,100791.66
2022-11-08T03:18:23.213Z,100797.48
2022-11-08T03:20:56.196Z,100797.48
2022-11-08T03:23:29.415Z,100786.38
2022-11-08T03:26:06.243Z,100784.55
2022-11-08T03:28:40.066Z,100788.83
2022-11-08T03:31:13.148Z,100782.22
2022-11-08T03:33:47.735Z,100781.47
2022-11-08T03:36:20.511Z,100777.45
2022-11-08T03:38:54.070Z,100778.60
2022-11-08T03:41:27.321Z,100781.19
2022-11-08T03:44:00.459Z,100784.27
2022-11-08T03:46:33.869Z,100776.52
2022-11-08T03:49:06.917Z,100777.05
2022-11-08T03:51:40.401Z,100776.66
2022-11-08T03:54:13.845Z,100772.17
2022-11-08T03:56:46.827Z,100773.34
2022-11-08T03:59:20.118Z,100763.14
2022-11-08T04:01:53.454Z,100760.20
2022-11-08T04:04:26.739Z,100761.85
2022-11-08T04:06:59.847Z,100756.32
2022-11-08T04:09:33.415Z,100755.92
2022-11-08T04:12:25.312Z,100758.11
2022-11-08T04:15:17.935Z,100758.66
2022-11-08T04:18:12.024Z,100760.48
2022-11-08T04:21:06.121Z,100763.69
2022-11-08T04:23:40.190Z,100758.38
2022-11-08T04:26:13.911Z,100762.50
2022-11-08T04:28:46.781Z,100759.38
2022-11-08T04:31:21.790Z,100760.53
2022-11-08T04:33:55.501Z,100764.41
2022-11-08T04:36:30.351Z,100764.41
2022-11-08T04:39:03.464Z,100760.67
2022-11-08T04:41:36.964Z,100760.28
2022-11-08T04:44:10.683Z,100766.60
2022-11-08T04:46:43.692Z,100768.55
2022-11-08T04:49:16.613Z,100760.65
2022-11-08T04:51:50.566Z,100759.86
2022-11-08T04:54:24.218Z,100763.66
2022-11-08T04:56:57.191Z,100762.64
2022-11-08T04:59:30.325Z,100760.95
2022-11-08T05:02:03.131Z,100767.16
2022-11-08T05:04:35.883Z,100760.48
2022-11-08T05:07:08.850Z,100766.15
2022-11-08T05:09:41.628Z,100763.31
2022-11-08T05:12:14.478Z,100773.93
2022-11-08T05:14:49.253Z,100778.48
2022-11-08T05:17:22.270Z,100781.61
2022-11-08T05:20:15.445Z,100779.78
2022-11-08T05:23:06.656Z,100778.88
2022-11-08T05:25:44.335Z,100776.71
2022-11-08T05:28:17.899Z,100777.75
2022-11-08T05:30:58.151Z,100781.65
2022-11-08T05:33:31.563Z,100775.06
2022-11-08T05:36:06.996Z,100772.00
2022-11-08T05:38:41.059Z,100772.53
2022-11-08T05:41:17.031Z,100771.73
2022-11-08T05:43:52.906Z,100780.84
2022-11-08T05:46:26.161Z,100774.93
2022-11-08T05:48:58.954Z,100784.89
2022-11-08T05:51:32.139Z,100775.72
2022-11-08T05:54:05.819Z,100782.23
2022-11-08T05:56:38.796Z,100784.43
2022-11-08T05:59:11.558Z,100774.47
2022-11-08T06:01:45.266Z,100780.55
2022-11-08T06:04:18.637Z,100770.33
2022-11-08T06:06:53.030Z,100765.16
2022-11-08T06:09:26.733Z,100768.64
2022-11-08T06:12:00.213Z,100770.87
2022-11-08T06:14:33.884Z,100770.87
2022-11-08T06:17:06.923Z,100763.33
2022-11-08T06:19:40.553Z,100765.02
2022-11-08T06:22:13.773Z,100768.50
2022-11-08T06:24:47.134Z,100763.86
2022-11-08T06:27:20.353Z,100768.91
2022-11-08T06:29:53.768Z,100762.72
2022-11-08T06:32:26.991Z,100758.08
2022-11-08T06:35:00.208Z,100764.91
2022-11-08T06:37:34.221Z,100759.37
2022-11-08T06:40:08.793Z,100758.70
2022-11-08T06:42:42.277Z,100759.77
2022-11-08T06:45:16.003Z,100762.77
2022-11-08T06:47:49.052Z,100759.92
2022-11-08T06:50:22.110Z,100755.27
2022-11-08T06:53:07.199Z,100756.70
2022-11-08T06:55:41.503Z,100760.72
2022-11-08T06:58:14.721Z,100760.98
2022-11-08T07:00:48.337Z,100761.76
2022-11-08T07:03:21.426Z,100759.58
2022-11-08T07:05:55.127Z,100758.02
2022-11-08T07:08:28.023Z,100755.06
2022-11-08T07:11:01.304Z,100755.47
2022-11-08T07:13:34.255Z,100752.74
2022-11-08T07:16:08.229Z,100748.73
2022-11-08T07:18:41.660Z,100745.23
2022-11-08T07:21:14.654Z,100748.49
2022-11-08T07:23:48.816Z,100744.60
2022-11-08T07:26:22.143Z,100746.42
2022-11-08T07:28:55.876Z,100745.52
2022-11-08T07:31:29.017Z,100744.63
2022-11-08T07:34:02.124Z,100741.27
2022-11-08T07:36:35.471Z,100738.80
2022-11-08T07:39:08.180Z,100731.30
2022-11-08T07:41:41.135Z,100728.29
2022-11-08T07:44:14.733Z,100730.11
2022-11-08T07:46:47.969Z,100729.33
2022-11-08T07:49:21.049Z,100725.42
2022-11-08T07:51:54.671Z,100728.41
2022-11-08T07:54:27.495Z,100727.89
2022-11-08T07:57:01.238Z,100719.20
2022-11-08T07:59:34.984Z,100730.33
2022-11-08T08:02:08.138Z,100725.92
2022-11-08T08:04:41.608Z,100728.77
2022-11-08T08:07:15.057Z,100725.39
2022-11-08T08:09:48.524Z,100728.73
2022-11-08T08:12:21.441Z,100726.52
2022-11-08T08:14:54.434Z,100726.89
2022-11-08T08:17:28.865Z,100722.98
2022-11-08T08:20:02.461Z,100721.69
2022-11-08T08:22:35.667Z,100722.71
2022-11-08T08:25:10.295Z,100718.66
2022-11-08T08:27:46.529Z,100716.84
2022-11-08T08:30:20.190Z,100715.80
2022-11-08T08:33:21.866Z,100707.61
2022-11-08T08:35:28.641Z,100709.56
2022-11-08T08:38:05.863Z,100704.50
2022-11-08T08:40:40.002Z,100701.90
2022-11-08T08:43:13.630Z,100706.53
2022-11-08T08:45:47.118Z,100711.20
2022-11-08T08:48:20.118Z,100698.59
2022-11-08T08:50:54.085Z,100696.36
2022-11-08T08:53:27.246Z,100689.75
2022-11-08T08:56:01.986Z,100697.66
2022-11-08T08:58:35.643Z,100692.59
2022-11-08T09:03:48.514Z,100684.16
2022-11-08T09:06:22.478Z,100678.67
2022-11-08T09:08:56.534Z,100671.66
2022-11-08T09:11:29.940Z,100665.61
2022-11-08T09:14:02.871Z,100666.91
2022-11-08T09:16:37.383Z,100660.66
2022-11-08T09:19:10.939Z,100656.47
2022-11-08T09:21:45.546Z,100655.41
2022-11-08T09:24:18.732Z,100656.02
2022-11-08T09:26:51.979Z,100649.77
2022-11-08T09:29:24.804Z,100654.30
2022-11-08T09:31:58.604Z,100651.54
2022-11-08T09:34:31.672Z,100646.33
2022-11-08T09:37:04.653Z,100644.86
2022-11-08T09:39:37.486Z,100643.80
2022-11-08T09:42:37.242Z,100648.30
2022-11-08T09:45:29.723Z,100644.03
2022-11-08T09:48:08.696Z,100648.83
2022-11-08T09:50:47.140Z,100648.53
2022-11-08T09:54:02.080Z,100646.17
2022-11-08T09:56:38.869Z,100649.41
2022-11-08T09:59:28.358Z,100649.64
2022-11-08T10:02:01.371Z,100649.59
2022-11-08T10:04:36.076Z,100644.39
2022-11-08T10:07:17.155Z,100642.31
2022-11-08T10:10:04.034Z,100643.61
2022-11-08T10:12:51.132Z,100645.81
2022-11-08T10:15:38.223Z,100645.81
2022-11-08T10:18:55.574Z,100648.52
2022-11-08T10:21:47.668Z,100652.13
2022-11-08T10:25:06.356Z,100656.03
2022-11-08T10:27:44.540Z,100647.98
2022-11-08T10:30:25.774Z,100649.77
2022-11-08T10:32:59.787Z,100648.33
2022-11-08T10:36:01.807Z,100645.44
2022-11-08T10:38:48.269Z,100639.46
2022-11-08T10:41:28.317Z,100639.58
2022-11-08T10:44:15.634Z,100641.89
2022-11-08T10:47:00.222Z,100634.61
2022-11-08T10:49:39.888Z,100636.02
2022-11-08T10:52:40.578Z,100629.06
2022-11-08T10:55:34.453Z,100630.62
2022-11-08T10:58:31.082Z,100621.52
2022-11-08T11:01:25.995Z,100630.50
2022-11-08T11:03:59.509Z,100628.08
2022-11-08T11:06:34.939Z,100627.07
2022-11-08T11:09:23.443Z,100625.25
2022-11-08T11:12:03.803Z,100622.12
2022-11-08T11:14:37.968Z,100626.95
2022-11-08T11:17:20.170Z,100625.25
2022-11-08T11:19:58.103Z,100629.55
2022-11-08T11:22:38.234Z,100623.11
2022-11-08T11:25:23.180Z,100623.00
2022-11-08T11:28:00.336Z,100621.06
2022-11-08T11:30:36.157Z,100618.75
2022-11-08T11:33:29.962Z,100624.20
2022-11-08T11:36:23.582Z,100622.30
2022-11-08T11:39:10.378Z,100618.66
2022-11-08T11:41:49.441Z,100625.55
2022-11-08T11:44:37.947Z,100622.20
2022-11-08T11:47:24.939Z,100630.45
2022-11-08T11:49:59.779Z,100631.80
2022-11-08T11:52:33.328Z,100627.80
2022-11-08T11:55:06.686Z,100634.63
2022-11-08T11:57:50.591Z,100647.26
2022-11-08T12:00:23.577Z,100649.66
2022-11-08T12:03:39.246Z,100645.78
2022-11-08T12:06:29.212Z,100653.36
2022-11-08T12:09:09.828Z,100657.50
2022-11-08T12:11:53.021Z,100654.30
2022-11-08T12:14:51.979Z,100660.55
2022-11-08T12:17:49.204Z,100655.72
2022-11-08T12:20:54.146Z,100658.19
2022-11-08T12:23:59.301Z,100663.02
2022-11-08T12:26:57.497Z,100654.18
2022-11-08T12:30:00.750Z,100654.19
2022-11-08T12:32:47.155Z,100647.98
2022-11-08T12:35:33.400Z,100648.62
2022-11-08T12:38:35.583Z,100647.48
2022-11-08T12:41:21.996Z,100648.30
2022-11-08T12:44:21.025Z,100651.33
2022-11-08T12:47:13.434Z,100651.27
2022-11-08T12:50:00.117Z,100656.23
2022-11-08T12:52:52.688Z,100665.31
2022-11-08T12:55:36.455Z,100667.16
2022-11-08T12:58:22.515Z,100663.39
2022-11-08T13:01:00.823Z,100660.56
2022-11-08T13:04:07.112Z,100672.66
2022-11-08T13:07:09.943Z,100668.91
2022-11-08T13:10:02.444Z,100659.20
2022-11-08T13:13:01.249Z,100665.83
2022-11-08T13:15:35.384Z,100666.08
2022-11-08T13:18:13.438Z,100667.00
2022-11-08T13:20:48.514Z,100670.65
2022-11-08T13:23:30.708Z,100667.14
2022-11-08T13:26:23.378Z,100670.02
2022-11-08T13:28:56.686Z,100675.17
2022-11-08T13:31:35.242Z,100680.63
2022-11-08T13:34:39.888Z,100676.48
2022-11-08T13:37:24.368Z,100677.25
2022-11-08T13:40:30.805Z,100679.81
2022-11-08T13:43:23.960Z,100679.02
2022-11-08T13:46:00.986Z,100680.30
2022-11-08T13:48:38.130Z,100676.24
2022-11-08T13:51:32.263Z,100678.69
2022-11-08T13:54:28.857Z,100689.56
2022-11-08T13:57:03.377Z,100695.21
2022-11-08T13:59:41.250Z,100697.34
2022-11-08T14:02:31.395Z,100700.84
2022-11-08T14:05:23.683Z,100705.06
2022-11-08T14:08:02.100Z,100703.09
2022-11-08T14:11:02.108Z,100702.03
2022-11-08T14:13:51.788Z,100699.79
2022-11-08T14:16:29.712Z,100702.36
2022-11-08T14:19:27.357Z,100705.55
2022-11-08T14:22:02.305Z,100702.55
2022-11-08T14:24:40.912Z,100704.72
2022-11-08T14:27:16.361Z,100712.45
2022-11-08T14:29:53.875Z,100714.35
2022-11-08T14:32:26.775Z,100718.73
2022-11-08T14:35:19.630Z,100704.89
2022-11-08T14:37:54.888Z,100717.52
2022-11-08T14:40:30.437Z,100720.87
2022-11-08T14:43:03.367Z,100716.93
2022-11-08T14:45:36.215Z,100713.92
2022-11-08T14:48:11.340Z,100721.78
2022-11-08T14:50:44.545Z,100727.80
2022-11-08T14:53:31.882Z,100727.38
2022-11-08T14:56:19.656Z,100726.09
2022-11-08T14:58:57.310Z,100725.19
2022-11-08T15:01:32.079Z,100728.67
2022-11-08T15:04:08.898Z,100734.23
2022-11-08T15:06:55.583Z,100741.30
2022-11-08T15:09:34.011Z,100745.56
2022-11-08T15:12:12.339Z,100748.43
2022-11-08T15:14:52.889Z,100747.06
2022-11-08T15:17:39.179Z,100749.86
2022-11-08T15:20:19.584Z,100746.16
2022-11-08T15:22:56.638Z,100745.94
2022-11-08T15:25:36.126Z,100748.59
2022-11-08T15:28:21.947Z,100750.67
2022-11-08T15:30:58.971Z,100748.65
2022-11-08T15:33:41.200Z,100745.73
2022-11-08T15:36:16.987Z,100748.63
2022-11-08T15:38:51.020Z,100759.92
2022-11-08T15:41:39.942Z,100764.58
2022-11-08T15:44:26.806Z,100767.44
2022-11-08T15:46:59.903Z,100760.36
2022-11-08T15:49:33.110Z,100762.69
2022-11-08T15:52:07.218Z,100770.19
2022-11-08T15:54:40.245Z,100774.34
2022-11-08T15:57:13.711Z,100777.75
2022-11-08T15:59:47.144Z,100779.86
2022-11-08T16:02:21.724Z,100780.09
2022-11-08T16:04:54.966Z,100781.92
2022-11-08T16:07:28.106Z,100779.34
2022-11-08T16:10:01.313Z,100781.39
2022-11-08T16:12:34.671Z,100784.91
2022-11-08T16:15:10.346Z,100785.95
2022-11-08T16:17:43.623Z,100782.46
2022-11-08T16:20:37.526Z,100784.25
2022-11-08T16:23:13.977Z,100785.19
2022-11-08T16:25:53.087Z,100781.53
2022-11-08T16:28:38.406Z,100782.19
2022-11-08T16:31:18.076Z,100773.75
2022-11-08T16:33:52.552Z,100765.77
2022-11-08T16:36:30.081Z,100764.48
2022-11-08T16:39:04.991Z,100771.05
2022-11-08T16:41:42.590Z,100765.52
2022-11-08T16:44:13.844Z,100774.28
2022-11-08T16:46:48.521Z,100776.06
2022-11-08T16:49:27.328Z,100773.88
2022-11-08T16:52:00.394Z,100768.84
2022-11-08T16:54:33.674Z,100774.27
2022-11-08T16:57:33.098Z,100768.30
2022-11-08T16:59:41.408Z,100770.27
2022-11-08T17:02:32.706Z,100765.63
2022-11-08T17:05:06.275Z,100756.94
2022-11-08T17:07:40.200Z,100761.50
2022-11-08T17:10:18.749Z,100759.53
2022-11-08T17:12:52.297Z,100764.08
2022-11-08T17:15:29.144Z,100762.00
2022-11-08T17:18:03.486Z,100760.34
2022-11-08T17:20:36.602Z,100761.50
2022-11-08T17:23:10.728Z,100757.61
2022-11-08T17:25:44.722Z,100758.02
2022-11-08T17:28:17.765Z,100756.46
2022-11-08T17:30:51.505Z,100756.48
2022-11-08T17:33:24.495Z,100765.05
2022-11-08T17:35:57.407Z,100764.17
2022-11-08T17:38:30.190Z,100771.81
2022-11-08T17:41:15.169Z,100772.96
2022-11-08T17:43:48.098Z,100767.91
2022-11-08T17:46:21.066Z,100762.87
2022-11-08T17:48:55.022Z,100755.89
2022-11-08T17:51:27.917Z,100758.13
2022-11-08T17:54:00.845Z,100755.02
2022-11-08T17:56:33.996Z,100765.64
2022-11-08T17:59:06.898Z,100759.98
2022-11-08T18:01:40.294Z,100754.68
2022-11-08T18:04:13.787Z,100754.81
2022-11-08T18:06:46.976Z,100751.60
2022-11-08T18:09:20.365Z,100748.89
2022-11-08T18:11:54.580Z,100732.34
2022-11-08T18:14:29.171Z,100738.05
2022-11-08T18:17:05.366Z,100740.86
2022-11-08T18:19:39.321Z,100734.52
2022-11-08T18:22:13.173Z,100731.17
2022-11-08T18:24:49.096Z,100732.20
2022-11-08T18:27:21.295Z,100731.70
2022-11-08T18:29:55.765Z,100730.81
2022-11-08T18:32:29.298Z,100731.22
2022-11-08T18:35:04.181Z,100740.38
2022-11-08T18:37:37.579Z,100743.11
2022-11-08T18:40:13.137Z,100735.34
2022-11-08T18:42:46.719Z,100731.59
2022-11-08T18:45:20.804Z,100734.22
2022-11-08T18:47:54.765Z,100740.16
2022-11-08T18:50:28.040Z,100747.16
2022-11-08T18:53:03.986Z,100743.67
2022-11-08T18:55:40.561Z,100750.02
2022-11-08T18:58:18.258Z,100750.91
2022-11-08T19:00:56.229Z,100752.08
2022-11-08T19:03:30.221Z,100761.41
2022-11-08T19:06:03.547Z,100761.14
2022-11-08T19:08:38.849Z,100752.61
2022-11-08T19:11:15.581Z,100759.34
2022-11-08T19:13:49.834Z,100755.33
2022-11-08T19:16:25.016Z,100756.76
2022-11-08T19:18:58.145Z,100758.59
2022-11-08T19:21:33.649Z,100752.52
2022-11-08T19:24:09.322Z,100748.76
2022-11-08T19:26:43.568Z,100746.30
2022-11-08T19:29:16.809Z,100745.00
2022-11-08T19:31:50.410Z,100749.78
2022-11-08T19:34:23.738Z,100754.73
2022-11-08T19:36:57.982Z,100752.91
2022-11-08T19:39:31.193Z,100757.31
2022-11-08T19:42:04.520Z,100754.59
2022-11-08T19:44:37.584Z,100756.52
2022-11-08T19:47:11.201Z,100758.48
2022-11-08T19:49:44.353Z,100756.03
2022-11-08T19:52:18.132Z,100761.84
2022-11-08T19:54:51.908Z,100772.33
2022-11-08T19:57:25.331Z,100764.30
2022-11-08T19:59:58.204Z,100757.69
2022-11-08T20:02:31.487Z,100752.77
2022-11-08T20:05:04.993Z,100757.55
2022-11-08T20:07:38.278Z,100756.79
2022-11-08T20:10:12.073Z,100753.16
2022-11-08T20:12:47.055Z,100759.24
2022-11-08T20:15:20.702Z,100757.19
2022-11-08T20:17:53.598Z,100756.55
2022-11-08T20:20:26.556Z,100757.57
2022-11-08T20:22:59.996Z,100746.30
2022-11-08T20:25:35.269Z,100741.25
2022-11-08T20:28:08.312Z,100751.34
2022-11-08T20:30:41.932Z,100760.69
2022-11-08T20:33:14.865Z,100765.10
2022-11-08T20:35:48.292Z,100754.06
2022-11-08T20:38:21.697Z,100749.55
2022-11-08T20:40:55.286Z,100760.17
2022-11-08T20:43:29.650Z,100762.77
2022-11-08T20:46:09.484Z,100763.30
2022-11-08T20:48:44.273Z,100755.65
2022-11-08T20:51:19.739Z,100754.48
2022-11-08T20:53:52.659Z,100749.66
2022-11-08T20:56:26.326Z,100748.13
2022-11-08T20:58:59.485Z,100748.27
2022-11-08T21:01:34.596Z,100751.48
2022-11-08T21:04:09.205Z,100749.16
2022-11-08T21:06:42.433Z,100755.65
2022-11-08T21:09:36.435Z,100751.87
2022-11-08T21:11:49.883Z,100746.31
2022-11-08T21:14:23.953Z,100748.64
2022-11-08T21:19:32.466Z,100754.86
2022-11-08T21:22:17.946Z,100759.02
2022-11-08T21:24:52.345Z,100752.01
2022-11-08T21:27:29.540Z,100752.91
2022-11-08T21:29:59.825Z,100742.04
2022-11-08T21:32:33.198Z,100742.94
2022-11-08T21:35:07.257Z,100743.83
2022-11-08T21:37:40.030Z,100745.53
2022-11-08T21:40:14.055Z,100742.94
2022-11-08T21:42:48.901Z,100748.52
2022-11-08T21:45:21.743Z,100750.98
2022-11-08T21:47:55.856Z,100748.75
2022-11-08T21:50:29.260Z,100747.35
2022-11-08T21:53:05.010Z,100741.00
2022-11-08T21:55:38.071Z,100739.84
2022-11-08T21:58:11.189Z,100740.99
2022-11-08T22:00:44.744Z,100745.64
2022-11-08T22:03:17.898Z,100745.25
2022-11-08T22:05:51.864Z,100741.77
2022-11-08T22:08:25.182Z,100749.81
2022-11-08T22:10:58.755Z,100747.84
2022-11-08T22:13:32.446Z,100752.92
2022-11-08T22:16:06.690Z,100757.57
2022-11-08T22:21:32.100Z,100765.61
2022-11-08T22:24:07.010Z,100762.36
2022-11-08T22:26:42.015Z,100760.30
2022-11-08T22:29:16.036Z,100756.14
2022-11-08T22:31:51.651Z,100749.55
2022-11-08T22:34:25.047Z,100740.98
2022-11-08T22:36:58.343Z,100745.39
2022-11-08T22:39:32.041Z,100746.16
2022-11-08T22:42:05.494Z,100741.65
2022-11-08T22:44:39.507Z,100745.41
2022-11-08T22:47:12.384Z,100743.58
2022-11-08T22:49:45.944Z,100746.70
2022-11-08T22:52:18.749Z,100752.25
2022-11-08T22:54:51.880Z,100746.45
2022-11-08T22:57:25.031Z,100753.95
2022-11-08T22:59:57.901Z,100760.96
2022-11-08T23:02:33.270Z,100761.45
2022-11-08T23:05:06.095Z,100761.86
2022-11-08T23:07:38.939Z,100760.56
2022-11-08T23:10:13.172Z,100773.92
2022-11-08T23:13:04.400Z,100771.97
2022-11-08T23:15:56.233Z,100775.19
2022-11-08T23:18:29.873Z,100771.30
2022-11-08T23:21:20.461Z,100775.06
2022-11-08T23:23:55.674Z,100782.20
2022-11-08T23:26:46.483Z,100781.80
2022-11-08T23:29:37.546Z,100776.62
2022-11-08T23:32:10.436Z,100779.11
2022-11-08T23:34:43.572Z,100774.95
2022-11-08T23:37:16.559Z,100769.63
2022-11-08T23:40:07.465Z,100771.69
2022-11-08T23:42:58.511Z,100773.89
2022-11-08T23:45:31.709Z,100776.08
2022-11-08T23:48:05.957Z,100782.03
2022-11-08T23:50:39.329Z,100770.64
2022-11-08T23:53:13.899Z,100767.69
2022-11-08T23:55:46.729Z,100767.55
2022-11-08T23:58:19.767Z,100765.19
